Time;durP1;ratioP1;P1;durP2;ratioP2;P2;SDS_P1;SDS_P2;PMS_P1;PMS_P2;Temp;Humidity;BMP_temperature;BMP_pressure;BME280_temperature;BME280_humidity;BME280_pressure;Samples;Min_cycle;Max_cycle;Signal;HPM_P1;HPM_P2
2023/10/07 00:02:14;;;;;;;6.83;4.23;;;;;;;11.66;100.00;97167.94;6155296;22;101904;-61
2023/10/07 00:04:41;;;;;;;5.03;4.20;;;;;;;11.63;100.00;97166.56;6149952;22;105309;-61
2023/10/07 00:07:11;;;;;;;6.73;4.50;;;;;;;11.54;100.00;97167.13;6177353;22;101797;-61
2023/10/07 00:09:43;;;;;;;7.57;4.80;;;;;;;11.54;100.00;97178.59;6177388;22;102480;-59
2023/10/07 00:12:18;;;;;;;6.67;5.00;;;;;;;11.55;100.00;97185.53;6175922;22;102539;-58
2023/10/07 00:14:45;;;;;;;6.00;4.30;;;;;;;11.62;100.00;97170.25;6151171;22;101812;-58
2023/10/07 00:17:17;;;;;;;5.97;4.60;;;;;;;11.58;100.00;97160.28;6151213;22;105807;-58
2023/10/07 00:19:44;;;;;;;6.77;4.57;;;;;;;11.57;100.00;97156.00;6176360;22;102998;-58
2023/10/07 00:22:13;;;;;;;5.27;4.13;;;;;;;11.56;100.00;97157.06;6176909;22;101751;-59
2023/10/07 00:24:43;;;;;;;6.73;4.30;;;;;;;11.59;100.00;97148.59;6154342;22;105012;-58
2023/10/07 00:27:22;;;;;;;7.03;4.40;;;;;;;11.53;100.00;97153.00;6150786;22;101877;-59
2023/10/07 00:29:54;;;;;;;4.67;3.90;;;;;;;11.43;100.00;97155.47;6150914;22;105543;-58
2023/10/07 00:32:28;;;;;;;6.40;4.83;;;;;;;11.46;100.00;97159.50;6150430;22;105670;-58
2023/10/07 00:34:55;;;;;;;6.43;4.60;;;;;;;11.37;100.00;97148.44;6176799;22;102143;-58
2023/10/07 00:37:24;;;;;;;4.03;3.63;;;;;;;11.31;100.00;97151.22;6177809;22;102832;-58
2023/10/07 00:39:53;;;;;;;5.77;4.13;;;;;;;11.15;100.00;97151.94;6150057;22;105427;-58
2023/10/07 00:42:22;;;;;;;4.73;4.00;;;;;;;11.08;100.00;97161.94;6150803;22;102108;-58
2023/10/07 00:44:53;;;;;;;7.20;4.20;;;;;;;10.84;100.00;97150.50;6176830;22;102413;-59
2023/10/07 00:47:20;;;;;;;6.13;4.30;;;;;;;10.74;100.00;97155.59;6154306;22;104616;-59
2023/10/07 00:49:54;;;;;;;4.60;4.20;;;;;;;10.71;100.00;97152.59;6176626;22;103932;-59
2023/10/07 00:52:28;;;;;;;4.93;4.13;;;;;;;10.50;100.00;97151.34;6150197;22;104960;-59
2023/10/07 00:55:08;;;;;;;4.80;4.30;;;;;;;10.44;100.00;97148.78;6176793;22;102675;-58
2023/10/07 00:57:35;;;;;;;5.10;4.60;;;;;;;10.27;100.00;97148.66;6150889;22;105686;-58
2023/10/07 01:00:13;;;;;;;6.80;5.63;;;;;;;10.18;100.00;97133.25;6176318;22;102578;-59
2023/10/07 01:02:40;;;;;;;6.63;5.00;;;;;;;10.00;100.00;97133.34;6176391;22;101895;-59
2023/10/07 01:05:13;;;;;;;7.20;5.80;;;;;;;9.99;100.00;97126.41;6175599;22;102435;-59
2023/10/07 01:07:40;;;;;;;8.60;5.73;;;;;;;10.07;100.00;97128.75;6175906;22;102522;-59
2023/10/07 01:10:13;;;;;;;6.43;5.70;;;;;;;9.82;100.00;97128.09;6153803;22;102663;-59
2023/10/07 01:12:42;;;;;;;7.00;5.63;;;;;;;9.67;100.00;97131.19;6150568;22;104882;-60
2023/10/07 01:15:23;;;;;;;6.53;5.67;;;;;;;9.50;100.00;97122.25;6151798;22;101877;-59
2023/10/07 01:17:56;;;;;;;7.13;5.83;;;;;;;9.50;100.00;97137.34;6177657;22;102244;-59
2023/10/07 01:20:34;;;;;;;6.57;5.57;;;;;;;9.57;100.00;97133.56;6151268;22;105384;-59
2023/10/07 01:23:04;;;;;;;6.60;5.70;;;;;;;9.64;100.00;97130.81;6150730;22;101672;-59
2023/10/07 01:25:32;;;;;;;9.70;5.43;;;;;;;9.65;100.00;97125.28;6150313;22;105597;-59
2023/10/07 01:28:01;;;;;;;6.00;5.40;;;;;;;9.46;100.00;97130.84;6149907;22;105342;-59
2023/10/07 01:30:30;;;;;;;5.80;5.13;;;;;;;9.41;100.00;97126.22;6154945;22;102855;-59
2023/10/07 01:33:04;;;;;;;7.13;5.60;;;;;;;9.36;100.00;97127.94;6149201;22;105251;-59
2023/10/07 01:35:34;;;;;;;6.50;5.53;;;;;;;9.30;100.00;97128.81;6150525;22;101791;-59
2023/10/07 01:38:08;;;;;;;7.83;5.77;;;;;;;9.18;100.00;97127.97;6176912;22;102655;-59
2023/10/07 01:40:52;;;;;;;6.40;5.07;;;;;;;9.27;100.00;97130.09;6149913;22;105358;-59
2023/10/07 01:43:20;;;;;;;6.37;5.17;;;;;;;9.08;100.00;97125.03;6151936;22;101818;-59
2023/10/07 01:45:49;;;;;;;7.00;5.47;;;;;;;9.13;100.00;97126.00;6151859;22;105225;-59
2023/10/07 01:48:17;;;;;;;5.90;5.30;;;;;;;9.13;100.00;97127.81;6177296;22;102991;-59
2023/10/07 01:50:46;;;;;;;6.47;5.20;;;;;;;9.09;100.00;97131.94;6151482;22;101864;-59
2023/10/07 01:53:16;;;;;;;5.63;5.13;;;;;;;9.02;100.00;97136.53;6155424;22;104829;-59
2023/10/07 01:55:43;;;;;;;5.97;5.03;;;;;;;9.13;100.00;97130.47;6151850;22;101789;-58
2023/10/07 01:58:13;;;;;;;6.30;4.83;;;;;;;9.11;100.00;97137.88;6178072;22;102250;-58
2023/10/07 02:00:45;;;;;;;6.47;5.03;;;;;;;9.20;100.00;97133.84;6150669;22;105732;-58
2023/10/07 02:03:16;;;;;;;5.33;4.60;;;;;;;9.16;100.00;97140.66;6152166;22;101822;-59
2023/10/07 02:05:48;;;;;;;5.97;4.97;;;;;;;9.24;100.00;97130.56;6151414;22;105514;-59
2023/10/07 02:08:20;;;;;;;6.13;5.03;;;;;;;9.19;100.00;97140.19;6150866;22;105880;-59
2023/10/07 02:10:49;;;;;;;8.07;4.97;;;;;;;9.22;100.00;97147.72;6151986;22;101814;-59
2023/10/07 02:13:19;;;;;;;5.40;4.87;;;;;;;9.08;100.00;97135.63;6151810;22;105023;-59
2023/10/07 02:15:47;;;;;;;5.47;4.27;;;;;;;9.00;100.00;97138.63;6181169;22;102790;-59
2023/10/07 02:18:16;;;;;;;6.27;4.80;;;;;;;9.06;100.00;97137.72;6151923;22;105363;-59
2023/10/07 02:20:49;;;;;;;5.47;4.70;;;;;;;8.76;100.00;97136.81;6151065;22;104569;-58
2023/10/07 02:23:22;;;;;;;5.63;4.97;;;;;;;8.78;100.00;97137.44;6151125;22;101985;-59
2023/10/07 02:25:50;;;;;;;9.07;4.57;;;;;;;8.76;100.00;97135.00;6151521;22;104463;-58
2023/10/07 02:28:22;;;;;;;7.03;4.97;;;;;;;8.66;100.00;97141.81;6150882;22;105180;-59
2023/10/07 02:31:00;;;;;;;5.90;4.43;;;;;;;8.74;100.00;97146.84;6151490;22;101764;-59
2023/10/07 02:33:27;;;;;;;5.73;5.00;;;;;;;8.77;100.00;97138.47;6151549;22;105210;-59
2023/10/07 02:35:56;;;;;;;5.00;4.50;;;;;;;8.70;100.00;97148.31;6176719;22;103418;-59
2023/10/07 02:38:29;;;;;;;6.07;4.70;;;;;;;8.38;100.00;97138.84;6155857;22;101809;-58
2023/10/07 02:41:06;;;;;;;6.03;5.30;;;;;;;8.50;100.00;97140.56;6150554;22;105415;-59
2023/10/07 02:43:34;;;;;;;6.63;5.60;;;;;;;8.51;100.00;97146.69;6177435;22;101754;-59
2023/10/07 02:46:05;;;;;;;7.97;6.30;;;;;;;8.18;100.00;97154.88;6178004;22;102260;-59
2023/10/07 02:48:38;;;;;;;6.00;5.40;;;;;;;8.32;100.00;97155.63;6176843;22;102390;-59
2023/10/07 02:51:10;;;;;;;6.40;5.40;;;;;;;8.32;100.00;97155.63;6151378;22;103334;-60
2023/10/07 02:53:39;;;;;;;5.80;5.20;;;;;;;8.21;100.00;97154.50;6151627;22;104078;-59
2023/10/07 02:56:17;;;;;;;6.37;5.70;;;;;;;8.30;100.00;97155.03;6150668;22;105364;-59
2023/10/07 02:58:58;;;;;;;5.83;5.23;;;;;;;8.34;100.00;97158.88;6151543;22;102127;-59
2023/10/07 03:01:26;;;;;;;7.40;5.50;;;;;;;8.24;100.00;97154.06;6155310;22;103759;-58
2023/10/07 03:03:53;;;;;;;6.63;6.03;;;;;;;8.26;100.00;97162.63;6151605;22;102030;-58
2023/10/07 03:06:37;;;;;;;6.40;5.37;;;;;;;8.29;100.00;97166.66;6177711;22;103358;-59
2023/10/07 03:09:18;;;;;;;6.37;5.77;;;;;;;8.20;100.00;97170.59;6147595;22;105351;-59
2023/10/07 03:11:49;;;;;;;8.57;5.37;;;;;;;8.23;100.00;97163.03;6151376;22;102188;-59
2023/10/07 03:14:25;;;;;;;8.40;5.93;;;;;;;8.22;100.00;97168.53;6151634;22;105109;-59
2023/10/07 03:16:59;;;;;;;7.00;5.50;;;;;;;8.07;100.00;97165.41;6150740;22;105772;-59
2023/10/07 03:19:45;;;;;;;5.70;5.20;;;;;;;8.16;100.00;97167.56;6151428;22;101809;-59
2023/10/07 03:22:15;;;;;;;6.33;5.33;;;;;;;8.07;100.00;97178.63;6151256;22;105361;-60
2023/10/07 03:24:49;;;;;;;6.67;5.50;;;;;;;8.10;100.00;97172.88;6154755;22;103628;-59
2023/10/07 03:27:25;;;;;;;6.53;5.57;;;;;;;7.99;100.00;97181.53;6177240;22;102336;-59
2023/10/07 03:30:00;;;;;;;6.37;5.63;;;;;;;7.84;100.00;97187.13;6176934;22;102991;-60
2023/10/07 03:32:48;;;;;;;6.90;5.63;;;;;;;8.04;100.00;97189.66;6151598;22;101822;-59
2023/10/07 03:35:25;;;;;;;6.53;5.37;;;;;;;7.90;100.00;97188.13;6151401;22;105150;-59
2023/10/07 03:37:54;;;;;;;7.03;5.67;;;;;;;7.95;100.00;97182.97;6177078;22;102334;-59
2023/10/07 03:40:34;;;;;;;8.23;5.87;;;;;;;7.96;100.00;97182.78;6177438;22;101857;-59
2023/10/07 03:43:01;;;;;;;6.33;5.23;;;;;;;7.88;100.00;97180.41;6177295;22;102895;-59
2023/10/07 03:45:29;;;;;;;6.33;5.57;;;;;;;7.78;100.00;97190.63;6154404;22;105239;-59
2023/10/07 03:47:58;;;;;;;8.47;5.70;;;;;;;7.76;100.00;97194.53;6151178;22;105325;-59
2023/10/07 03:50:34;;;;;;;5.50;5.00;;;;;;;7.74;100.00;97189.44;6176053;22;103081;-59
2023/10/07 03:53:31;;;;;;;6.63;5.60;;;;;;;7.77;100.00;97190.84;6178220;22;101897;-61
2023/10/07 03:56:01;;;;;;;6.63;5.07;;;;;;;7.66;100.00;97187.06;6150956;22;105099;-62
2023/10/07 03:58:28;;;;;;;6.47;5.40;;;;;;;7.66;100.00;97175.63;6176870;22;102535;-61
2023/10/07 04:00:56;;;;;;;5.43;4.93;;;;;;;7.68;100.00;97184.19;6151495;22;101737;-62
2023/10/07 04:03:24;;;;;;;6.20;5.13;;;;;;;7.67;100.00;97193.97;6176704;22;103012;-61
2023/10/07 04:05:51;;;;;;;5.27;4.60;;;;;;;7.58;100.00;97186.50;6176409;22;103063;-62
2023/10/07 04:08:19;;;;;;;6.80;5.00;;;;;;;7.56;100.00;97186.69;6181917;22;101835;-61
2023/10/07 04:10:47;;;;;;;6.93;5.23;;;;;;;7.27;100.00;97208.41;6175873;22;103013;-61
2023/10/07 04:13:22;;;;;;;5.63;5.10;;;;;;;7.37;100.00;97197.38;6151007;22;102189;-61
2023/10/07 04:15:52;;;;;;;8.30;5.80;;;;;;;7.23;100.00;97211.66;6176767;22;102389;-61
2023/10/07 04:18:34;;;;;;;5.30;4.80;;;;;;;7.39;100.00;97203.25;6150253;22;103836;-61
2023/10/07 04:21:01;;;;;;;7.17;5.13;;;;;;;7.50;100.00;97203.44;6176412;22;101908;-61
2023/10/07 04:23:28;;;;;;;7.97;5.97;;;;;;;7.38;100.00;97210.41;6177336;22;102724;-61
2023/10/07 04:26:10;;;;;;;8.53;5.40;;;;;;;7.40;100.00;97203.06;6175341;22;101808;-61
2023/10/07 04:28:40;;;;;;;5.63;5.00;;;;;;;7.54;100.00;97201.16;6151175;22;101768;-61
2023/10/07 04:31:11;;;;;;;6.37;5.60;;;;;;;7.63;100.00;97198.06;6154783;22;105598;-61
2023/10/07 04:33:47;;;;;;;6.33;5.13;;;;;;;7.71;100.00;97194.34;6177678;22;102077;-61
2023/10/07 04:36:15;;;;;;;5.93;5.30;;;;;;;7.68;100.00;97189.50;6151063;22;105837;-60
2023/10/07 04:38:54;;;;;;;5.30;4.80;;;;;;;7.61;100.00;97194.81;6176198;22;103509;-61
2023/10/07 04:41:31;;;;;;;6.83;5.13;;;;;;;7.44;100.00;97203.44;6151077;22;101854;-61
2023/10/07 04:46:45;;;;;;;6.43;4.50;;;;;;;7.42;100.00;97194.91;6175235;22;102583;-61
2023/10/07 04:49:14;;;;;;;5.57;4.83;;;;;;;7.16;100.00;97201.13;6176340;22;102594;-61
2023/10/07 04:51:55;;;;;;;5.77;4.50;;;;;;;7.06;100.00;97194.66;6176692;22;102515;-61
2023/10/07 04:54:21;;;;;;;7.40;5.07;;;;;;;7.21;100.00;97197.84;6154311;22;105811;-60
2023/10/07 04:57:00;;;;;;;5.83;4.50;;;;;;;6.82;100.00;97193.50;6176776;22;102442;-59
2023/10/07 04:59:28;;;;;;;4.97;4.50;;;;;;;6.99;100.00;97196.50;6150071;22;103855;-58
2023/10/07 05:02:01;;;;;;;4.83;4.33;;;;;;;6.93;100.00;97205.28;6150794;22;101884;-59
2023/10/07 05:04:28;;;;;;;5.17;4.67;;;;;;;6.81;100.00;97212.22;6150986;22;105841;-59
2023/10/07 05:06:55;;;;;;;5.57;5.03;;;;;;;6.82;100.00;97216.50;6175972;22;101673;-59
2023/10/07 05:09:21;;;;;;;6.27;5.07;;;;;;;6.96;100.00;97203.03;6150908;22;103413;-59
2023/10/07 05:11:49;;;;;;;6.40;5.73;;;;;;;7.06;100.00;97200.75;6151115;22;105185;-59
2023/10/07 05:14:17;;;;;;;6.20;5.10;;;;;;;6.95;100.00;97216.44;6150031;22;105025;-60
2023/10/07 05:16:47;;;;;;;6.63;5.37;;;;;;;7.00;100.00;97206.06;6156405;22;102147;-60
2023/10/07 05:19:22;;;;;;;6.90;5.40;;;;;;;7.01;100.00;97205.84;6177743;22;102454;-60
2023/10/07 05:21:59;;;;;;;8.00;5.70;;;;;;;6.81;100.00;97212.22;6178240;22;101774;-59
2023/10/07 05:24:29;;;;;;;7.20;5.80;;;;;;;6.84;100.00;97201.22;6151888;22;106703;-60
2023/10/07 05:26:59;;;;;;;6.33;5.30;;;;;;;6.94;100.00;97206.91;6176212;22;103203;-60
2023/10/07 05:29:25;;;;;;;8.90;5.43;;;;;;;7.03;100.00;97200.38;6178551;22;101670;-60
2023/10/07 05:31:55;;;;;;;6.70;5.10;;;;;;;7.13;100.00;97201.53;6152713;22;105278;-59
2023/10/07 05:34:22;;;;;;;6.30;5.30;;;;;;;7.09;100.00;97199.53;6177913;22;102960;-60
2023/10/07 05:36:49;;;;;;;5.70;5.13;;;;;;;7.23;100.00;97195.81;6178877;22;101797;-60
2023/10/07 05:39:17;;;;;;;6.33;5.30;;;;;;;6.97;100.00;97190.59;6156326;22;104089;-59
2023/10/07 05:41:44;;;;;;;5.93;5.03;;;;;;;6.99;100.00;97186.72;6179286;22;103315;-60
2023/10/07 05:44:14;;;;;;;7.50;5.27;;;;;;;7.07;100.00;97196.28;6178833;22;102697;-61
2023/10/07 05:46:43;;;;;;;5.27;4.73;;;;;;;6.96;100.00;97188.97;6177744;22;102571;-60
2023/10/07 05:49:11;;;;;;;6.83;5.10;;;;;;;7.03;100.00;97193.22;6127463;22;101869;-60
2023/10/07 05:51:38;;;;;;;7.10;5.40;;;;;;;7.01;100.00;97190.00;6178499;22;103281;-60
2023/10/07 05:54:05;;;;;;;5.70;5.10;;;;;;;7.20;100.00;97191.75;6178488;22;102769;-61
2023/10/07 05:56:32;;;;;;;6.33;5.23;;;;;;;7.26;100.00;97201.47;6153216;22;101862;-60
2023/10/07 05:59:01;;;;;;;10.27;5.60;;;;;;;7.10;100.00;97206.44;6155877;22;105313;-60
2023/10/07 06:01:29;;;;;;;7.13;5.43;;;;;;;7.20;100.00;97206.81;6152372;22;102376;-60
2023/10/07 06:04:00;;;;;;;6.80;6.07;;;;;;;7.38;100.00;97220.16;6178381;22;102228;-60
2023/10/07 06:06:30;;;;;;;8.60;5.43;;;;;;;7.50;100.00;97213.19;6177493;22;102551;-61
2023/10/07 06:09:00;;;;;;;8.70;5.80;;;;;;;7.72;100.00;97220.63;6178230;22;101755;-61
2023/10/07 06:11:29;;;;;;;9.40;5.73;;;;;;;8.04;100.00;97221.44;6178375;22;102835;-61
2023/10/07 06:13:57;;;;;;;8.47;5.87;;;;;;;8.25;100.00;97229.88;6152152;22;105405;-61
2023/10/07 06:16:23;;;;;;;11.83;5.30;;;;;;;8.56;100.00;97229.03;6178149;22;103259;-61
2023/10/07 06:18:50;;;;;;;8.80;5.47;;;;;;;8.69;100.00;97236.84;6179100;22;102306;-60
2023/10/07 06:21:27;;;;;;;8.07;5.33;;;;;;;8.82;100.00;97247.31;6180596;22;102537;-60
2023/10/07 06:23:58;;;;;;;7.77;5.57;;;;;;;9.08;100.00;97247.06;6151822;22;105713;-60
2023/10/07 06:26:26;;;;;;;6.43;5.10;;;;;;;9.33;100.00;97239.88;6150271;22;103628;-60
2023/10/07 06:28:55;;;;;;;6.10;5.50;;;;;;;9.42;100.00;97244.66;6150497;22;101833;-60
2023/10/07 06:31:28;;;;;;;6.50;4.67;;;;;;;9.68;100.00;97240.88;6176749;22;102339;-60
2023/10/07 06:34:01;;;;;;;8.20;5.30;;;;;;;9.89;100.00;97240.38;6176925;22;102618;-61
2023/10/07 06:36:30;;;;;;;6.07;5.10;;;;;;;10.12;100.00;97245.81;6151482;22;102029;-61
2023/10/07 06:39:01;;;;;;;7.33;5.00;;;;;;;10.29;100.00;97239.63;6151637;22;105599;-60
2023/10/07 06:41:29;;;;;;;8.77;4.70;;;;;;;10.41;100.00;97234.34;6176722;22;102540;-60
2023/10/07 06:43:59;;;;;;;8.13;4.77;;;;;;;10.58;100.00;97241.41;6182262;22;101868;-60
2023/10/07 06:46:40;;;;;;;8.13;4.90;;;;;;;10.75;100.00;97246.88;6177198;22;102829;-60
2023/10/07 06:49:15;;;;;;;7.13;5.07;;;;;;;10.92;100.00;97247.81;6151517;22;101838;-60
2023/10/07 06:51:42;;;;;;;9.07;4.87;;;;;;;11.06;100.00;97247.34;6151453;22;105538;-61
2023/10/07 06:54:13;;;;;;;9.87;4.83;;;;;;;11.20;100.00;97238.06;6176404;22;103132;-61
2023/10/07 06:56:40;;;;;;;6.50;4.10;;;;;;;11.24;100.00;97241.06;6151511;22;101811;-61
2023/10/07 06:59:12;;;;;;;6.53;4.23;;;;;;;11.38;100.00;97247.75;6151584;22;105319;-61
2023/10/07 07:01:51;;;;;;;5.70;3.90;;;;;;;11.49;100.00;97238.94;6176004;22;102824;-60
2023/10/07 07:04:22;;;;;;;6.97;4.50;;;;;;;11.59;100.00;97250.66;6177983;22;101809;-60
2023/10/07 07:06:58;;;;;;;6.00;4.07;;;;;;;11.82;100.00;97245.25;6155148;22;105499;-60
2023/10/07 07:12:16;;;;;;;5.80;4.40;;;;;;;12.08;100.00;97247.34;6177373;22;103407;-61
2023/10/07 07:14:46;;;;;;;6.33;4.27;;;;;;;12.24;100.00;97248.44;6176497;22;103370;-60
2023/10/07 07:22:51;;;;;;;4.63;3.37;;;;;;;12.56;100.00;97241.53;6177054;22;103047;-60
2023/10/07 07:25:24;;;;;;;6.77;3.67;;;;;;;12.59;100.00;97251.72;6177421;22;101887;-60
2023/10/07 07:27:52;;;;;;;5.63;3.87;;;;;;;12.62;100.00;97237.88;6150862;22;105495;-60
2023/10/07 07:30:29;;;;;;;4.47;3.83;;;;;;;12.67;100.00;97243.31;6180559;22;102730;-60
2023/10/07 07:32:59;;;;;;;4.53;3.90;;;;;;;12.72;100.00;97246.06;6177348;22;102819;-60
2023/10/07 07:35:38;;;;;;;4.13;3.73;;;;;;;12.82;100.00;97239.00;6176807;22;102547;-60
2023/10/07 07:38:11;;;;;;;4.03;3.50;;;;;;;12.89;100.00;97230.84;6151614;22;102307;-60
2023/10/07 07:40:42;;;;;;;8.37;3.70;;;;;;;12.88;100.00;97226.56;6151890;22;105374;-60
2023/10/07 07:43:09;;;;;;;5.00;3.50;;;;;;;12.91;100.00;97213.53;6176610;22;102463;-60
2023/10/07 07:45:37;;;;;;;5.53;4.07;;;;;;;13.01;100.00;97212.88;6177678;22;101853;-60
2023/10/07 07:48:06;;;;;;;5.40;3.80;;;;;;;13.04;100.00;97201.72;6151230;22;105564;-60
2023/10/07 07:50:35;;;;;;;4.27;3.67;;;;;;;13.18;100.00;97211.00;6150405;22;105319;-60
2023/10/07 07:53:06;;;;;;;4.63;3.10;;;;;;;13.18;100.00;97221.69;6181360;22;101997;-60
2023/10/07 07:55:34;;;;;;;4.30;3.60;;;;;;;13.28;100.00;97221.81;6150503;22;105219;-60
2023/10/07 07:58:04;;;;;;;4.90;3.47;;;;;;;13.54;100.00;97226.44;6151330;22;101860;-60
2023/10/07 08:00:31;;;;;;;4.27;3.63;;;;;;;13.73;100.00;97227.75;6176816;22;102371;-60
2023/10/07 08:02:59;;;;;;;4.10;3.30;;;;;;;13.86;100.00;97216.66;6150436;22;105805;-59
2023/10/07 08:05:28;;;;;;;4.93;3.23;;;;;;;13.84;100.00;97213.44;6177764;22;102074;-60
2023/10/07 08:07:55;;;;;;;3.67;3.37;;;;;;;14.11;100.00;97219.63;6151181;22;103430;-60
2023/10/07 08:10:23;;;;;;;4.23;3.50;;;;;;;14.41;100.00;97219.94;6150684;22;105783;-60
2023/10/07 08:12:51;;;;;;;4.23;3.60;;;;;;;14.64;100.00;97224.94;6181088;22;101932;-60
2023/10/07 08:15:23;;;;;;;5.47;3.60;;;;;;;14.71;100.00;97230.91;6176838;22;102501;-60
2023/10/07 08:17:52;;;;;;;5.57;3.13;;;;;;;14.95;100.00;97219.59;6177012;22;102298;-60
2023/10/07 08:20:27;;;;;;;3.70;3.27;;;;;;;15.08;100.00;97212.94;6150959;22;105163;-60
2023/10/07 08:22:54;;;;;;;4.90;3.50;;;;;;;15.20;100.00;97216.28;6150553;22;105717;-59
2023/10/07 08:25:36;;;;;;;4.90;3.73;;;;;;;15.21;100.00;97215.19;6151503;22;102854;-60
2023/10/07 08:28:18;;;;;;;6.37;3.87;;;;;;;15.56;100.00;97218.09;6177240;22;102208;-59
2023/10/07 08:30:47;;;;;;;6.37;3.57;;;;;;;15.77;100.00;97214.41;6175880;22;102729;-64
2023/10/07 08:33:15;;;;;;;4.00;3.40;;;;;;;15.92;100.00;97211.78;6125987;22;101823;-60
2023/10/07 08:35:44;;;;;;;5.80;3.10;;;;;;;16.20;100.00;97209.47;6180724;22;102314;-64
2023/10/07 08:38:22;;;;;;;4.80;3.73;;;;;;;16.28;100.00;97216.97;6176872;22;101780;-60
2023/10/07 08:41:04;;;;;;;6.10;3.13;;;;;;;16.19;100.00;97217.78;6151229;22;105065;-59
2023/10/07 08:43:37;;;;;;;4.13;3.17;;;;;;;16.23;100.00;97213.47;6150410;22;105805;-60
2023/10/07 08:46:09;;;;;;;5.17;3.60;;;;;;;16.62;100.00;97214.63;6177043;22;101879;-59
2023/10/07 08:48:42;;;;;;;4.60;3.73;;;;;;;16.88;100.00;97224.28;6176559;22;102872;-59
2023/10/07 08:51:14;;;;;;;4.27;3.47;;;;;;;17.12;100.00;97228.03;6149629;22;104394;-59
2023/10/07 08:53:42;;;;;;;6.77;3.70;;;;;;;17.05;100.00;97230.22;6176677;22;101786;-60
2023/10/07 08:56:09;;;;;;;5.70;3.60;;;;;;;16.85;100.00;97233.69;6151209;22;105230;-59
2023/10/07 08:58:39;;;;;;;5.83;3.63;;;;;;;17.26;100.00;97224.50;6179917;22;102475;-59
2023/10/07 09:01:17;;;;;;;5.17;3.50;;;;;;;17.36;100.00;97234.44;6177127;22;102384;-59
2023/10/07 09:03:48;;;;;;;5.43;3.90;;;;;;;17.33;100.00;97235.00;6149278;22;105338;-59
2023/10/07 09:06:15;;;;;;;4.57;3.30;;;;;;;17.62;100.00;97234.16;6174710;22;101712;-59
2023/10/07 09:08:43;;;;;;;8.27;3.90;;;;;;;17.79;100.00;97223.84;6148466;22;105258;-59
2023/10/07 09:11:13;;;;;;;5.20;3.60;;;;;;;17.63;100.00;97219.59;6173654;22;102574;-59
2023/10/07 09:13:40;;;;;;;5.27;3.50;;;;;;;18.04;100.00;97217.56;6174834;22;102023;-60
2023/10/07 09:16:10;;;;;;;3.77;3.27;;;;;;;18.18;100.00;97218.53;6147840;22;105281;-59
2023/10/07 09:18:40;;;;;;;7.73;3.90;;;;;;;18.42;100.00;97211.44;6147281;22;105650;-59
2023/10/07 09:21:18;;;;;;;4.03;3.30;;;;;;;18.43;100.00;97208.44;6180277;22;103330;-59
2023/10/07 09:23:48;;;;;;;4.87;3.13;;;;;;;18.93;100.00;97202.69;6176194;22;103138;-59
2023/10/07 09:26:23;;;;;;;4.47;3.50;;;;;;;18.63;100.00;97196.72;6150471;22;101905;-59
2023/10/07 09:28:59;;;;;;;5.70;3.30;;;;;;;18.80;100.00;97191.75;6176588;22;102858;-59
2023/10/07 09:31:28;;;;;;;5.97;3.30;;;;;;;18.80;100.00;97191.75;6149743;22;105434;-59
2023/10/07 09:34:03;;;;;;;4.10;3.40;;;;;;;19.06;100.00;97196.59;6150253;22;101789;-59
2023/10/07 09:36:34;;;;;;;4.83;3.30;;;;;;;18.90;100.00;97194.31;6146109;22;105146;-59
2023/10/07 09:42:03;;;;;;;4.97;3.20;;;;;;;19.27;100.00;97198.06;6150452;22;101770;-59
2023/10/07 09:44:30;;;;;;;3.80;3.40;;;;;;;19.29;100.00;97189.69;6153834;22;104927;-59
2023/10/07 09:47:02;;;;;;;3.17;2.73;;;;;;;19.43;100.00;97196.81;6150174;22;101859;-60
2023/10/07 09:49:32;;;;;;;4.33;3.07;;;;;;;19.57;100.00;97192.31;6176873;22;102278;-60
2023/10/07 09:52:16;;;;;;;4.03;2.93;;;;;;;19.44;100.00;97186.78;6175933;22;102462;-60
2023/10/07 09:55:20;;;;;;;5.07;3.40;;;;;;;19.87;100.00;97185.75;6150490;22;101887;-61
2023/10/07 09:58:00;;;;;;;4.83;3.30;;;;;;;20.05;100.00;97180.38;6150436;22;105559;-60
2023/10/07 10:00:39;;;;;;;5.33;3.10;;;;;;;20.35;100.00;97189.97;6175464;22;102334;-60
2023/10/07 10:03:34;;;;;;;4.83;3.20;;;;;;;20.69;100.00;97187.81;6151556;22;101909;-60
2023/10/07 10:06:25;;;;;;;4.03;3.17;;;;;;;20.42;95.68;97180.41;6151964;22;105199;-60
2023/10/07 10:08:59;;;;;;;3.57;2.90;;;;;;;20.18;76.04;97173.47;6181167;22;102008;-60
2023/10/07 10:11:44;;;;;;;3.57;2.87;;;;;;;20.36;82.51;97169.94;6177881;22;102913;-59
2023/10/07 10:14:16;;;;;;;6.67;2.83;;;;;;;20.62;88.32;97165.78;6177381;22;103080;-60
2023/10/07 10:16:50;;;;;;;4.87;3.10;;;;;;;21.01;84.04;97168.91;6151748;22;101734;-60
2023/10/07 10:19:28;;;;;;;5.23;2.73;;;;;;;20.82;76.45;97165.44;6177458;22;102804;-60
2023/10/07 10:22:10;;;;;;;4.43;3.40;;;;;;;20.58;82.83;97170.97;6177177;22;102446;-60
2023/10/07 10:24:42;;;;;;;3.67;3.07;;;;;;;20.93;82.44;97167.69;6177849;22;101783;-60
2023/10/07 10:27:10;;;;;;;5.00;3.47;;;;;;;21.06;87.29;97166.13;6177424;22;103155;-60
2023/10/07 10:29:52;;;;;;;4.57;3.17;;;;;;;21.01;83.47;97161.63;6155051;22;104218;-60
2023/10/07 10:32:28;;;;;;;3.63;3.23;;;;;;;21.16;90.31;97161.34;6176930;22;102537;-60
2023/10/07 10:34:56;;;;;;;17.27;3.67;;;;;;;21.35;82.09;97155.81;6177325;22;102464;-60
2023/10/07 10:37:26;;;;;;;5.20;3.27;;;;;;;21.18;79.41;97158.31;6177426;22;101819;-60
2023/10/07 10:39:55;;;;;;;4.67;3.23;;;;;;;21.03;79.89;97154.00;6151325;22;105585;-60
2023/10/07 10:42:22;;;;;;;5.83;3.00;;;;;;;21.60;82.88;97150.75;6176923;22;102624;-60
2023/10/07 10:44:49;;;;;;;5.80;3.07;;;;;;;21.78;78.71;97149.03;6177522;22;102186;-60
2023/10/07 10:47:18;;;;;;;4.67;3.10;;;;;;;21.43;72.07;97138.91;6177877;22;102947;-60
2023/10/07 10:49:45;;;;;;;5.07;3.40;;;;;;;21.70;75.62;97138.94;6150666;22;105222;-60
2023/10/07 10:52:13;;;;;;;3.17;2.87;;;;;;;21.81;82.32;97137.59;6182228;22;101767;-60
2023/10/07 10:54:42;;;;;;;4.23;3.30;;;;;;;21.54;71.37;97129.47;6176958;22;101744;-60
2023/10/07 10:57:14;;;;;;;4.27;3.00;;;;;;;22.26;80.00;97126.56;6177348;22;101904;-60
2023/10/07 10:59:42;;;;;;;4.77;3.13;;;;;;;21.90;74.94;97138.50;6151831;22;105039;-60
2023/10/07 11:02:11;;;;;;;4.63;3.10;;;;;;;21.83;70.96;97122.66;6150616;22;105285;-60
2023/10/07 11:04:38;;;;;;;3.77;3.20;;;;;;;22.36;78.38;97126.34;6177636;22;101787;-60
2023/10/07 11:07:07;;;;;;;6.30;3.30;;;;;;;22.30;73.99;97121.31;6177719;22;102413;-60
2023/10/07 11:09:38;;;;;;;3.47;3.10;;;;;;;22.37;76.41;97116.28;6176827;22;102604;-60
2023/10/07 11:12:12;;;;;;;5.33;3.00;;;;;;;22.63;69.75;97126.25;6151319;22;102730;-60
2023/10/07 11:14:41;;;;;;;4.67;3.30;;;;;;;22.62;62.23;97111.06;6155279;22;105217;-60
2023/10/07 11:17:09;;;;;;;4.37;3.00;;;;;;;22.94;69.00;97110.78;6151241;22;101882;-60
2023/10/07 11:19:43;;;;;;;4.33;3.00;;;;;;;22.89;65.04;97101.97;6177515;22;102445;-60
2023/10/07 11:22:13;;;;;;;3.67;3.00;;;;;;;23.14;68.34;97106.72;6150435;22;104501;-60
2023/10/07 11:24:40;;;;;;;5.03;3.17;;;;;;;23.23;66.33;97104.88;6177175;22;101933;-60
2023/10/07 11:27:09;;;;;;;4.57;2.83;;;;;;;23.00;58.60;97093.25;6177053;22;102350;-60
2023/10/07 11:29:38;;;;;;;5.20;3.23;;;;;;;23.49;62.96;97101.13;6150817;22;105636;-60
2023/10/07 11:32:07;;;;;;;3.40;2.93;;;;;;;23.92;65.05;97093.13;6177263;22;101680;-60
2023/10/07 11:34:39;;;;;;;3.47;2.63;;;;;;;23.57;66.01;97097.66;6177391;22;102298;-60
2023/10/07 11:37:09;;;;;;;4.10;2.70;;;;;;;23.65;60.84;97093.38;6181023;22;102700;-60
2023/10/07 11:39:48;;;;;;;4.23;2.90;;;;;;;23.72;62.06;97096.41;6151400;22;105358;-60
2023/10/07 11:42:18;;;;;;;3.57;3.00;;;;;;;23.72;56.22;97090.97;6176246;22;102750;-60
2023/10/07 11:44:46;;;;;;;4.27;2.73;;;;;;;23.59;48.00;97094.63;6177274;22;101696;-59
2023/10/07 11:47:16;;;;;;;4.07;2.67;;;;;;;23.02;42.87;97082.91;6177358;22;102848;-60
2023/10/07 11:49:43;;;;;;;3.53;2.90;;;;;;;22.82;40.06;97075.28;6150591;22;103782;-60
2023/10/07 11:52:10;;;;;;;3.90;2.77;;;;;;;22.91;40.00;97103.28;6177143;22;101815;-60
2023/10/07 11:54:38;;;;;;;3.83;2.83;;;;;;;22.65;38.14;97077.91;6177229;22;102370;-60
2023/10/07 11:57:06;;;;;;;4.33;2.70;;;;;;;22.86;38.02;97081.72;6176112;22;102475;-60